createdAt,value
2023-11-07T00:00:13.665Z,8.67
2023-11-07T00:02:41.074Z,8.66
2023-11-07T00:05:10.269Z,8.75
2023-11-07T00:07:37.855Z,8.77
2023-11-07T00:10:05.487Z,8.75
2023-11-07T00:12:32.311Z,8.71
2023-11-07T00:14:58.994Z,8.67
2023-11-07T00:17:25.557Z,8.68
2023-11-07T00:19:52.156Z,8.67
2023-11-07T00:22:19.274Z,8.66
2023-11-07T00:24:46.491Z,8.66
2023-11-07T00:27:13.104Z,8.68
2023-11-07T00:29:39.723Z,8.71
2023-11-07T00:32:06.822Z,8.73
2023-11-07T00:34:33.467Z,8.77
2023-11-07T00:37:00.083Z,8.82
2023-11-07T00:39:26.842Z,8.81
2023-11-07T00:41:53.556Z,8.82
2023-11-07T00:44:20.070Z,8.78
2023-11-07T00:46:46.710Z,8.78
2023-11-07T00:49:13.424Z,8.76
2023-11-07T00:51:40.048Z,8.73
2023-11-07T00:54:06.992Z,8.78
2023-11-07T00:56:33.639Z,8.79
2023-11-07T00:59:00.256Z,8.84
2023-11-07T01:01:27.050Z,8.83
2023-11-07T01:03:53.709Z,8.86
2023-11-07T01:06:20.507Z,8.86
2023-11-07T01:08:47.289Z,8.87
2023-11-07T01:11:14.013Z,8.87
2023-11-07T01:13:40.963Z,8.87
2023-11-07T01:16:08.160Z,8.86
2023-11-07T01:18:34.918Z,8.88
2023-11-07T01:21:01.632Z,8.85
2023-11-07T01:23:28.202Z,8.86
2023-11-07T01:25:55.058Z,8.90
2023-11-07T01:28:22.364Z,8.90
2023-11-07T01:30:52.291Z,8.90
2023-11-07T01:33:19.045Z,8.90
2023-11-07T01:35:46.676Z,8.91
2023-11-07T01:38:13.217Z,8.93
2023-11-07T01:40:39.743Z,8.96
2023-11-07T01:43:16.511Z,8.91
2023-11-07T01:45:43.734Z,8.96
2023-11-07T01:48:14.172Z,8.93
2023-11-07T01:50:41.679Z,8.87
2023-11-07T01:53:08.280Z,8.91
2023-11-07T01:55:35.753Z,8.79
2023-11-07T01:58:02.884Z,8.73
2023-11-07T02:00:29.950Z,8.73
2023-11-07T02:02:57.156Z,8.67
2023-11-07T02:05:23.687Z,8.65
2023-11-07T02:07:50.267Z,8.66
2023-11-07T02:10:16.873Z,8.71
2023-11-07T02:12:43.381Z,8.74
2023-11-07T02:15:30.772Z,8.75
2023-11-07T02:17:57.821Z,8.78
2023-11-07T02:20:24.827Z,8.79
2023-11-07T02:22:57.670Z,8.83
2023-11-07T02:25:24.478Z,8.86
2023-11-07T02:27:51.042Z,8.89
2023-11-07T02:30:17.836Z,8.92
2023-11-07T02:32:45.052Z,8.95
2023-11-07T02:35:12.419Z,8.97
2023-11-07T02:37:40.016Z,9.01
2023-11-07T02:40:07.678Z,9.00
2023-11-07T02:42:34.375Z,8.92
2023-11-07T02:45:00.945Z,8.83
2023-11-07T02:47:27.589Z,8.74
2023-11-07T02:49:55.238Z,8.63
2023-11-07T02:52:22.146Z,8.59
2023-11-07T02:54:49.851Z,8.60
2023-11-07T02:57:16.684Z,8.59
2023-11-07T02:59:49.038Z,8.60
2023-11-07T03:02:18.270Z,8.65
2023-11-07T03:04:45.583Z,8.66
2023-11-07T03:07:12.348Z,8.67
2023-11-07T03:09:38.906Z,8.63
2023-11-07T03:12:05.811Z,8.61
2023-11-07T03:14:33.548Z,8.57
2023-11-07T03:17:00.168Z,8.56
2023-11-07T03:19:26.723Z,8.54
2023-11-07T03:21:54.222Z,8.50
2023-11-07T03:24:21.012Z,8.43
2023-11-07T03:26:47.545Z,8.35
2023-11-07T03:29:14.150Z,8.26
2023-11-07T03:31:41.515Z,8.21
2023-11-07T03:34:08.124Z,8.24
2023-11-07T03:36:34.759Z,8.34
2023-11-07T03:39:01.387Z,8.37
2023-11-07T03:41:28.039Z,8.39
2023-11-07T03:43:54.833Z,8.42
2023-11-07T03:46:21.795Z,8.43
2023-11-07T03:48:48.574Z,8.38
2023-11-07T03:51:15.243Z,8.35
2023-11-07T03:53:42.384Z,8.32
2023-11-07T03:56:10.407Z,8.23
2023-11-07T03:58:37.091Z,8.15
2023-11-07T04:01:04.667Z,8.10
2023-11-07T04:03:31.368Z,8.06
2023-11-07T04:05:58.060Z,7.98
2023-11-07T04:08:25.547Z,7.96
2023-11-07T04:10:52.152Z,7.86
2023-11-07T04:13:18.824Z,7.87
2023-11-07T04:15:45.515Z,7.86
2023-11-07T04:18:12.379Z,7.83
2023-11-07T04:20:42.894Z,7.83
2023-11-07T04:23:12.498Z,7.81
2023-11-07T04:25:39.022Z,7.80
2023-11-07T04:28:05.570Z,7.90
2023-11-07T04:30:33.507Z,7.98
2023-11-07T04:33:00.321Z,8.03
2023-11-07T04:35:27.001Z,8.06
2023-11-07T04:37:56.450Z,8.04
2023-11-07T04:40:23.059Z,8.04
2023-11-07T04:42:50.977Z,8.05
2023-11-07T04:45:21.417Z,8.06
2023-11-07T04:47:50.496Z,8.07
2023-11-07T04:50:18.629Z,8.09
2023-11-07T04:52:45.193Z,8.09
2023-11-07T04:55:12.976Z,8.05
2023-11-07T04:57:39.835Z,8.03
2023-11-07T05:00:08.035Z,8.03
2023-11-07T05:02:36.031Z,7.99
2023-11-07T05:05:02.667Z,7.98
2023-11-07T05:07:29.245Z,7.94
2023-11-07T05:09:58.961Z,8.01
2023-11-07T05:12:25.940Z,8.07
2023-11-07T05:14:53.100Z,8.07
2023-11-07T05:17:19.726Z,8.06
2023-11-07T05:19:46.248Z,8.05
2023-11-07T05:22:12.790Z,7.98
2023-11-07T05:24:41.262Z,7.90
2023-11-07T05:27:07.965Z,7.82
2023-11-07T05:29:35.536Z,7.84
2023-11-07T05:32:02.107Z,7.86
2023-11-07T05:34:29.741Z,7.85
2023-11-07T05:36:56.890Z,7.88
2023-11-07T05:39:28.621Z,8.01
2023-11-07T05:41:55.520Z,8.07
2023-11-07T05:44:22.250Z,8.10
2023-11-07T05:46:49.814Z,8.11
2023-11-07T05:49:16.687Z,8.11
2023-11-07T05:51:43.314Z,8.08
2023-11-07T05:54:10.713Z,8.10
2023-11-07T05:56:37.521Z,8.14
2023-11-07T05:59:05.076Z,8.10
2023-11-07T06:01:31.704Z,8.10
2023-11-07T06:03:58.477Z,8.11
2023-11-07T06:06:25.787Z,8.13
2023-11-07T06:08:53.374Z,8.14
2023-11-07T06:11:20.220Z,8.17
2023-11-07T06:13:46.803Z,8.18
2023-11-07T06:16:13.329Z,8.14
2023-11-07T06:18:40.441Z,8.12
2023-11-07T06:21:07.227Z,8.05
2023-11-07T06:23:33.907Z,8.00
2023-11-07T06:26:00.498Z,7.94
2023-11-07T06:28:29.781Z,7.94
2023-11-07T06:30:56.386Z,7.92
2023-11-07T06:33:23.091Z,7.91
2023-11-07T06:35:50.611Z,7.92
2023-11-07T06:38:19.784Z,7.89
2023-11-07T06:40:46.324Z,7.83
2023-11-07T06:43:12.966Z,7.81
2023-11-07T06:45:39.662Z,7.76
2023-11-07T06:48:06.372Z,7.78
2023-11-07T06:50:33.676Z,7.81
2023-11-07T06:53:00.525Z,7.80
2023-11-07T06:55:27.324Z,7.76
2023-11-07T06:57:54.547Z,7.71
2023-11-07T07:00:26.765Z,7.78
2023-11-07T07:02:57.841Z,7.79
2023-11-07T07:05:25.554Z,7.76
2023-11-07T07:07:52.532Z,7.76
2023-11-07T07:10:20.133Z,7.75
2023-11-07T07:12:46.749Z,7.82
2023-11-07T07:15:13.569Z,7.86
2023-11-07T07:17:40.516Z,7.88
2023-11-07T07:20:13.334Z,8.02
2023-11-07T07:22:44.488Z,8.16
2023-11-07T07:25:16.864Z,8.32
2023-11-07T07:27:47.243Z,8.37
2023-11-07T07:30:27.340Z,8.36
2023-11-07T07:32:54.415Z,8.51
2023-11-07T07:35:22.680Z,8.63
2023-11-07T07:37:53.340Z,8.67
2023-11-07T07:40:27.045Z,8.79
2023-11-07T07:42:54.454Z,9.03
2023-11-07T07:45:22.577Z,9.08
2023-11-07T07:47:50.144Z,9.16
2023-11-07T07:50:19.200Z,9.12
2023-11-07T07:52:46.744Z,9.17
2023-11-07T07:55:19.993Z,9.31
2023-11-07T07:57:55.906Z,9.28
2023-11-07T08:00:25.704Z,9.27
2023-11-07T08:02:53.300Z,9.56
2023-11-07T08:05:20.512Z,9.21
2023-11-07T08:07:47.795Z,9.23
2023-11-07T08:10:20.933Z,9.00
2023-11-07T08:12:48.224Z,9.00
2023-11-07T08:15:14.928Z,9.03
2023-11-07T08:17:42.260Z,9.23
2023-11-07T08:20:15.858Z,9.56
2023-11-07T08:22:43.141Z,9.97
2023-11-07T08:25:11.668Z,9.78
2023-11-07T08:27:42.287Z,10.13
2023-11-07T08:30:16.216Z,9.89
2023-11-07T08:32:44.062Z,9.98
2023-11-07T08:35:12.776Z,10.17
2023-11-07T08:37:40.127Z,10.05
2023-11-07T08:40:09.942Z,10.24
2023-11-07T08:42:42.309Z,10.41
2023-11-07T08:45:11.616Z,10.24
2023-11-07T08:47:38.149Z,10.38
2023-11-07T08:50:05.476Z,10.03
2023-11-07T08:52:31.989Z,10.08
2023-11-07T08:55:02.816Z,10.15
2023-11-07T08:57:29.909Z,10.66
2023-11-07T08:59:56.809Z,10.63
2023-11-07T09:02:24.102Z,11.09
2023-11-07T09:04:50.624Z,10.61
2023-11-07T09:07:20.396Z,10.88
2023-11-07T09:09:47.923Z,10.66
2023-11-07T09:12:15.596Z,10.69
2023-11-07T09:14:42.670Z,11.01
2023-11-07T09:17:09.879Z,10.99
2023-11-07T09:19:36.427Z,11.37
2023-11-07T09:22:02.967Z,11.15
2023-11-07T09:24:30.041Z,11.07
2023-11-07T09:26:57.105Z,10.86
2023-11-07T09:29:24.781Z,10.72
2023-11-07T09:31:53.487Z,10.72
2023-11-07T09:34:23.437Z,10.83
2023-11-07T09:36:50.121Z,10.89
2023-11-07T09:39:17.018Z,10.68
2023-11-07T09:41:44.585Z,10.72
2023-11-07T09:44:14.951Z,10.83
2023-11-07T09:46:44.440Z,11.27
2023-11-07T09:49:11.091Z,11.38
2023-11-07T09:51:38.239Z,11.29
2023-11-07T09:54:06.810Z,11.77
2023-11-07T09:56:43.918Z,11.63
2023-11-07T09:59:25.697Z,11.69
2023-11-07T10:01:52.565Z,11.98
2023-11-07T10:04:20.861Z,11.70
2023-11-07T10:06:48.276Z,12.09
2023-11-07T10:09:17.515Z,11.94
2023-11-07T10:11:50.836Z,12.32
2023-11-07T10:14:21.834Z,11.97
2023-11-07T10:16:58.156Z,12.39
2023-11-07T10:19:26.746Z,12.33
2023-11-07T10:21:53.636Z,12.36
2023-11-07T10:24:20.671Z,12.52
2023-11-07T10:27:02.046Z,12.20
2023-11-07T10:29:31.935Z,12.71
2023-11-07T10:32:04.443Z,12.43
2023-11-07T10:34:32.007Z,12.45
2023-11-07T10:37:00.422Z,12.18
2023-11-07T10:39:27.740Z,12.38
2023-11-07T10:41:58.654Z,12.54
2023-11-07T10:44:26.955Z,12.26
2023-11-07T10:46:54.918Z,12.63
2023-11-07T10:49:25.511Z,12.22
2023-11-07T10:51:54.298Z,11.80
2023-11-07T10:54:22.457Z,11.86
2023-11-07T10:56:51.220Z,12.04
2023-11-07T10:59:23.283Z,11.94
2023-11-07T11:01:51.850Z,11.92
2023-11-07T11:04:26.993Z,11.96
2023-11-07T11:06:58.617Z,12.08
2023-11-07T11:09:26.360Z,12.33
2023-11-07T11:11:55.990Z,12.48
2023-11-07T11:14:24.220Z,12.07
2023-11-07T11:16:51.552Z,12.36
2023-11-07T11:19:43.669Z,12.58
2023-11-07T11:22:21.533Z,12.18
2023-11-07T11:25:32.486Z,12.14
2023-11-07T11:28:02.973Z,12.53
2023-11-07T11:30:36.105Z,12.39
2023-11-07T11:33:13.151Z,12.58
2023-11-07T11:35:42.200Z,12.33
2023-11-07T11:38:17.404Z,12.32
2023-11-07T11:40:55.810Z,12.41
2023-11-07T11:43:24.163Z,12.23
2023-11-07T11:45:52.103Z,12.37
2023-11-07T11:48:20.713Z,12.20
2023-11-07T11:50:47.549Z,12.09
2023-11-07T11:53:33.148Z,12.37
2023-11-07T11:55:59.659Z,12.52
2023-11-07T11:58:31.494Z,12.29
2023-11-07T12:00:59.439Z,12.27
2023-11-07T12:03:36.131Z,11.94
2023-11-07T12:06:05.547Z,11.88
2023-11-07T12:08:50.426Z,12.07
2023-11-07T12:11:17.012Z,12.32
2023-11-07T12:13:43.842Z,12.36
2023-11-07T12:16:15.481Z,11.87
2023-11-07T12:18:43.172Z,12.03
2023-11-07T12:21:10.396Z,12.04
2023-11-07T12:23:37.574Z,11.96
2023-11-07T12:26:04.773Z,11.65
2023-11-07T12:28:31.412Z,11.75
2023-11-07T12:30:58.022Z,11.84
2023-11-07T12:33:24.742Z,11.94
2023-11-07T12:35:56.370Z,11.98
2023-11-07T12:38:25.476Z,11.89
2023-11-07T12:40:52.238Z,11.78
2023-11-07T12:43:18.791Z,11.84
2023-11-07T12:45:49.098Z,11.90
2023-11-07T12:48:25.594Z,12.28
2023-11-07T12:50:52.392Z,12.64
2023-11-07T12:53:19.758Z,12.55
2023-11-07T12:55:53.351Z,12.28
2023-11-07T12:58:30.803Z,12.03
2023-11-07T13:00:59.253Z,11.77
2023-11-07T13:03:29.761Z,11.85
2023-11-07T13:06:00.870Z,11.82
2023-11-07T13:08:28.968Z,11.87
2023-11-07T13:11:14.321Z,11.88
2023-11-07T13:13:43.049Z,11.93
2023-11-07T13:16:09.741Z,11.99
2023-11-07T13:18:39.565Z,11.66
2023-11-07T13:21:09.796Z,11.51
2023-11-07T13:23:37.876Z,11.26
2023-11-07T13:26:04.766Z,11.36
2023-11-07T13:28:31.638Z,11.43
2023-11-07T13:30:58.190Z,11.62
2023-11-07T13:33:25.417Z,11.67
2023-11-07T13:35:52.196Z,11.55
2023-11-07T13:38:18.769Z,11.36
2023-11-07T13:40:46.460Z,11.85
2023-11-07T13:43:13.525Z,12.39
2023-11-07T13:45:40.303Z,12.47
2023-11-07T13:48:07.843Z,12.56
2023-11-07T13:50:34.905Z,12.46
2023-11-07T13:53:01.517Z,11.97
2023-11-07T13:55:34.196Z,11.55
2023-11-07T13:58:00.779Z,11.36
2023-11-07T14:00:28.917Z,11.55
2023-11-07T14:02:56.001Z,11.45
2023-11-07T14:05:23.613Z,11.46
2023-11-07T14:07:54.303Z,11.42
2023-11-07T14:10:23.267Z,11.34
2023-11-07T14:12:52.885Z,11.29
2023-11-07T14:15:20.883Z,11.29
2023-11-07T14:17:47.705Z,11.14
2023-11-07T14:20:16.777Z,11.12
2023-11-07T14:22:45.039Z,11.71
2023-11-07T14:25:14.939Z,12.08
2023-11-07T14:27:44.675Z,11.79
2023-11-07T14:30:27.298Z,11.62
2023-11-07T14:33:02.840Z,11.44
2023-11-07T14:35:30.477Z,11.49
2023-11-07T14:37:59.159Z,11.82
2023-11-07T14:40:25.745Z,12.18
2023-11-07T14:42:54.365Z,11.82
2023-11-07T14:45:24.149Z,11.36
2023-11-07T14:47:51.516Z,11.06
2023-11-07T14:50:18.333Z,11.11
2023-11-07T14:52:45.301Z,11.08
2023-11-07T14:55:12.880Z,11.15
2023-11-07T14:57:43.725Z,11.47
2023-11-07T15:00:15.532Z,11.86
2023-11-07T15:02:42.241Z,12.23
2023-11-07T15:05:10.269Z,12.37
2023-11-07T15:07:37.337Z,12.37
2023-11-07T15:10:04.105Z,12.25
2023-11-07T15:12:30.771Z,11.99
2023-11-07T15:14:57.539Z,11.55
2023-11-07T15:17:24.239Z,11.15
2023-11-07T15:19:50.801Z,11.04
2023-11-07T15:22:17.352Z,10.88
2023-11-07T15:24:43.880Z,10.65
2023-11-07T15:27:10.480Z,10.49
2023-11-07T15:29:39.023Z,10.41
2023-11-07T15:32:06.357Z,10.31
2023-11-07T15:34:33.669Z,10.24
2023-11-07T15:37:00.664Z,10.20
2023-11-07T15:39:27.367Z,10.09
2023-11-07T15:41:55.685Z,10.09
2023-11-07T15:44:22.287Z,10.09
2023-11-07T15:46:48.841Z,9.99
2023-11-07T15:49:15.759Z,10.01
2023-11-07T15:51:42.364Z,9.96
2023-11-07T15:54:08.909Z,9.95
2023-11-07T15:56:35.545Z,9.93
2023-11-07T15:59:03.097Z,9.92
2023-11-07T16:01:29.669Z,9.92
2023-11-07T16:03:59.268Z,9.89
2023-11-07T16:06:26.795Z,9.87
2023-11-07T16:08:54.440Z,9.88
2023-11-07T16:11:21.075Z,9.87
2023-11-07T16:13:47.668Z,9.88
2023-11-07T16:16:14.649Z,9.90
2023-11-07T16:18:41.735Z,9.80
2023-11-07T16:21:09.252Z,9.68
2023-11-07T16:23:36.115Z,9.66
2023-11-07T16:26:02.754Z,9.70
2023-11-07T16:28:29.327Z,9.71
2023-11-07T16:30:57.696Z,9.72
2023-11-07T16:33:24.367Z,9.67
2023-11-07T16:35:51.056Z,9.61
2023-11-07T16:38:18.207Z,9.56
2023-11-07T16:40:45.812Z,9.54
2023-11-07T16:43:12.369Z,9.53
2023-11-07T16:45:38.999Z,9.51
2023-11-07T16:48:05.911Z,9.54
2023-11-07T16:50:32.563Z,9.49
2023-11-07T16:52:59.122Z,9.45
2023-11-07T16:55:25.666Z,9.45
2023-11-07T16:57:52.294Z,9.40
2023-11-07T17:00:19.712Z,9.42
2023-11-07T17:02:47.841Z,9.37
2023-11-07T17:05:16.338Z,9.32
2023-11-07T17:07:42.845Z,9.27
2023-11-07T17:10:09.862Z,9.26
2023-11-07T17:12:37.508Z,9.24
2023-11-07T17:15:05.510Z,9.27
2023-11-07T17:17:32.261Z,9.24
2023-11-07T17:19:58.974Z,9.23
2023-11-07T17:22:25.568Z,9.23
2023-11-07T17:24:52.802Z,9.27
2023-11-07T17:27:19.517Z,9.31
2023-11-07T17:29:47.315Z,9.30
2023-11-07T17:32:15.411Z,9.30
2023-11-07T17:34:42.883Z,9.26
2023-11-07T17:37:09.457Z,9.26
2023-11-07T17:39:37.278Z,9.20
2023-11-07T17:42:05.690Z,9.16
2023-11-07T17:44:32.392Z,9.10
2023-11-07T17:46:59.018Z,9.04
2023-11-07T17:49:25.642Z,9.00
2023-11-07T17:51:52.436Z,8.97
2023-11-07T17:54:19.226Z,8.96
2023-11-07T17:56:45.876Z,8.93
2023-11-07T17:59:13.300Z,8.93
2023-11-07T18:01:40.313Z,8.90
2023-11-07T18:04:07.620Z,8.86
2023-11-07T18:06:34.545Z,8.79
2023-11-07T18:09:03.838Z,8.73
2023-11-07T18:11:35.488Z,8.71
2023-11-07T18:14:04.947Z,8.71
2023-11-07T18:16:32.285Z,8.68
2023-11-07T18:18:59.992Z,8.68
2023-11-07T18:21:27.997Z,8.73
2023-11-07T18:23:54.976Z,8.68
2023-11-07T18:26:22.673Z,8.67
2023-11-07T18:28:50.310Z,8.68
2023-11-07T18:31:17.734Z,8.68
2023-11-07T18:33:46.137Z,8.67
2023-11-07T18:36:13.245Z,8.59
2023-11-07T18:38:40.787Z,8.52
2023-11-07T18:41:08.850Z,8.42
2023-11-07T18:43:35.535Z,8.32
2023-11-07T18:46:02.234Z,8.24
2023-11-07T18:48:28.986Z,8.18
2023-11-07T18:50:55.730Z,8.11
2023-11-07T18:53:27.972Z,8.06
2023-11-07T18:56:00.199Z,8.07
2023-11-07T18:58:26.766Z,8.06
2023-11-07T19:00:53.346Z,8.06
2023-11-07T19:03:20.005Z,8.05
2023-11-07T19:05:46.645Z,8.07
2023-11-07T19:08:13.231Z,8.08
2023-11-07T19:10:41.637Z,8.11
2023-11-07T19:13:08.425Z,8.11
2023-11-07T19:15:35.010Z,8.15
2023-11-07T19:18:01.811Z,8.16
2023-11-07T19:20:31.098Z,8.17
2023-11-07T19:22:57.637Z,8.18
2023-11-07T19:25:24.894Z,8.18
2023-11-07T19:27:54.289Z,8.21
2023-11-07T19:30:22.794Z,8.22
2023-11-07T19:32:52.016Z,8.25
2023-11-07T19:35:19.307Z,8.27
2023-11-07T19:37:49.173Z,8.26
2023-11-07T19:40:20.173Z,8.28
2023-11-07T19:42:49.301Z,8.31
2023-11-07T19:45:17.058Z,8.34
2023-11-07T19:47:44.262Z,8.35
2023-11-07T19:50:11.196Z,8.38
2023-11-07T19:52:37.784Z,8.40
2023-11-07T19:55:04.790Z,8.40
2023-11-07T19:57:31.498Z,8.35
2023-11-07T19:59:58.098Z,8.29
2023-11-07T20:02:24.729Z,8.25
2023-11-07T20:04:53.521Z,8.23
2023-11-07T20:07:20.482Z,8.22
2023-11-07T20:09:47.444Z,8.24
2023-11-07T20:12:14.177Z,8.23
2023-11-07T20:14:40.754Z,8.24
2023-11-07T20:17:07.309Z,8.22
2023-11-07T20:19:34.007Z,8.20
2023-11-07T20:22:00.872Z,8.22
2023-11-07T20:24:27.489Z,8.25
2023-11-07T20:26:54.051Z,8.26
2023-11-07T20:29:22.817Z,8.24
2023-11-07T20:31:49.983Z,8.23
2023-11-07T20:34:17.372Z,8.22
2023-11-07T20:36:43.987Z,8.21
2023-11-07T20:39:10.557Z,8.23
2023-11-07T20:41:37.648Z,8.26
2023-11-07T20:44:04.373Z,8.27
2023-11-07T20:46:34.276Z,8.32
2023-11-07T20:49:03.816Z,8.37
2023-11-07T20:51:32.703Z,8.40
2023-11-07T20:53:59.556Z,8.44
2023-11-07T20:56:29.566Z,8.48
2023-11-07T20:58:57.357Z,8.50
2023-11-07T21:01:24.076Z,8.52
2023-11-07T21:03:50.905Z,8.52
2023-11-07T21:06:17.800Z,8.53
2023-11-07T21:08:44.830Z,8.54
2023-11-07T21:11:13.759Z,8.60
2023-11-07T21:13:40.722Z,8.61
2023-11-07T21:16:08.441Z,8.59
2023-11-07T21:18:35.323Z,8.60
2023-11-07T21:21:02.167Z,8.59
2023-11-07T21:23:28.960Z,8.60
2023-11-07T21:25:55.516Z,8.58
2023-11-07T21:28:22.078Z,8.57
2023-11-07T21:30:48.662Z,8.54
2023-11-07T21:33:16.554Z,8.51
2023-11-07T21:35:44.031Z,8.49
2023-11-07T21:38:10.650Z,8.47
2023-11-07T21:40:40.590Z,8.48
2023-11-07T21:43:07.655Z,8.49
2023-11-07T21:45:34.281Z,8.49
2023-11-07T21:48:00.961Z,8.49
2023-11-07T21:50:28.162Z,8.50
2023-11-07T21:52:54.939Z,8.47
2023-11-07T21:55:21.750Z,8.50
2023-11-07T21:57:48.325Z,8.49
2023-11-07T22:00:16.566Z,8.45
2023-11-07T22:02:44.449Z,8.49
2023-11-07T22:05:16.218Z,8.49
2023-11-07T22:07:46.048Z,8.46
2023-11-07T22:10:15.021Z,8.44
2023-11-07T22:12:45.198Z,8.42
2023-11-07T22:15:14.702Z,8.41
2023-11-07T22:17:45.069Z,8.40
2023-11-07T22:20:15.004Z,8.40
2023-11-07T22:22:45.443Z,8.40
2023-11-07T22:25:12.596Z,8.42
2023-11-07T22:27:39.859Z,8.43
2023-11-07T22:30:09.986Z,8.45
2023-11-07T22:32:41.642Z,8.49
2023-11-07T22:35:09.166Z,8.51
2023-11-07T22:37:35.840Z,8.54
2023-11-07T22:40:03.495Z,8.53
2023-11-07T22:42:30.121Z,8.53
2023-11-07T22:44:56.727Z,8.54
2023-11-07T22:47:23.621Z,8.57
2023-11-07T22:49:50.242Z,8.57
2023-11-07T22:52:16.906Z,8.57
2023-11-07T22:54:43.527Z,8.54
2023-11-07T22:57:10.269Z,8.52
2023-11-07T22:59:39.081Z,8.51
2023-11-07T23:02:05.780Z,8.48
2023-11-07T23:04:33.543Z,8.48
2023-11-07T23:07:00.312Z,8.50
2023-11-07T23:09:27.349Z,8.47
2023-11-07T23:11:54.003Z,8.45
2023-11-07T23:14:23.740Z,8.45
2023-11-07T23:16:51.672Z,8.45
2023-11-07T23:19:18.309Z,8.45
2023-11-07T23:21:44.956Z,8.45
2023-11-07T23:24:11.672Z,8.40
2023-11-07T23:26:42.061Z,8.37
2023-11-07T23:29:14.594Z,8.31
2023-11-07T23:31:41.106Z,8.25
2023-11-07T23:34:07.731Z,8.24
2023-11-07T23:36:34.431Z,8.22
2023-11-07T23:39:01.405Z,8.22
2023-11-07T23:41:27.938Z,8.19
2023-11-07T23:43:54.529Z,8.21
2023-11-07T23:46:21.112Z,8.26
2023-11-07T23:48:47.706Z,8.31
2023-11-07T23:51:14.335Z,8.36
2023-11-07T23:53:43.177Z,8.42
2023-11-07T23:56:09.752Z,8.43
2023-11-07T23:58:36.277Z,8.42
